Logo AVAMET
Benvolgut visitant, si us plau, ingressa Recuperar contrasenya
AVAMET paisatges

Xàtiva Centre

Dades diàries. Acumulats / Últims 30 dies disponibles

Data Temperatura (°C) Humitat rel. (%) Pressió rel. (hPa) Vent (km/h) Precipitació
Mínima Mitjana Màxima Amplitud
tèrmica
Mínima Mitjana Màxima Mínima Mitjana Màxima Predom. Mitjana Ràfega
màxima
Total
(mm)
Índex-n
Mínima Mitjana Màxima Mínima Mitjana Màxima n
0 a 1
P0 max
mm 5'
Dades mensuals acumulades fins l'últim dia disponible
05/2020 12,8 16,6 19,5 21,8 18,3 28,2 34,0 21,2 11 59 95 1.005 1.019 1.031   3,9 54,0 28,5
Dades anuals acumulades fins l'últim dia disponible
2020 3,3 11,7 19,5 16,0 7,8 21,7 34,0 30,7 11 65 100 1.003 1.021 1.036   3,6 76,0 568,2
Últims 30 dies disponibles
31-05-2020 16,7     23,1     30,8 14,1 32 57 75 1.012 1.016 1.018 SSE 3,2 23,4 0,0
30-05-2020 16,6     22,7     29,9 13,3 35 55 71 1.014 1.017 1.019 SSO 3,2 19,4 0,0
29-05-2020 15,5     23,4     31,7 16,2 20 49 76 1.015 1.019 1.024 SE 3,3 28,1 0,0
28-05-2020 17,9     21,9     27,1 9,2 33 62 84 1.023 1.026 1.029 SO 4,2 28,1 0,0
27-05-2020 16,0     21,9     28,0 12,0 30 60 81 1.027 1.027 1.029 SSE 4,2 24,5 0,0
26-05-2020 17,3     21,5     27,5 10,2 39 63 81 1.026 1.028 1.029 SSE 3,3 19,4 0,0
25-05-2020 16,6     20,8     24,9 8,3 44 65 82 1.026 1.028 1.029 S 2,6 17,3 0,0
24-05-2020 19,1     21,9     26,0 6,9 54 70 85 1.028 1.029 1.031 SO 3,4 23,4 0,0
23-05-2020 18,1     24,7     33,2 15,1 23 56 76 1.024 1.026 1.029 SO 3,3 19,4 0,0
22-05-2020 18,7     25,2     32,8 14,1 32 56 77 1.022 1.024 1.027 SSO 2,9 19,4 0,0
21-05-2020 17,5     24,6     32,6 15,1 31 56 81 1.019 1.021 1.023 SSO 2,8 17,3 0,0
20-05-2020 17,4     24,5     32,7 15,3 23 52 76 1.015 1.017 1.020 S 2,8 20,9 0,0
19-05-2020 15,6     23,9     33,6 18,0 21 53 79 1.016 1.019 1.023 SSE 2,3 28,1 0,0
18-05-2020 14,8     22,2     30,8 16,0 21 55 80 1.019 1.022 1.024 SSE 3,0 20,9 0,0
17-05-2020 14,5     19,4     24,9 10,4 42 67 89 1.020 1.022 1.024 SSE 3,3 29,5 0,0
16-05-2020 14,6     15,9     18,3 3,7 71 86 95 1.016 1.018 1.021 SE 1,7 17,3 12,6 0,48 1,20
15-05-2020 12,9     16,9     20,9 8,0 47 67 83 1.012 1.014 1.017 SSO 2,1 18,4 0,3
14-05-2020 12,8     16,6     20,3 7,5 45 66 92 1.005 1.008 1.012 S 4,8 27,0 11,7 0,48 1,20
13-05-2020 14,7     20,1     26,2 11,5 31 50 73 1.006 1.008 1.010 SSO 5,8 23,4 0,3
12-05-2020 16,6     19,8     24,6 8,0 38 58 81 1.009 1.011 1.014 SSO 4,0 25,6 0,6
11-05-2020 17,0     21,4     27,3 10,3 30 46 64 1.009 1.011 1.014 S 10,9 37,8 0,0
10-05-2020 16,0     20,1     25,6 9,6 23 56 92 1.006 1.008 1.011 S 8,0 54,0 3,0 0,42 0,60
09-05-2020 17,1     20,9     26,9 9,8 52 71 87 1.010 1.014 1.018 SO 4,2 22,0 0,0
08-05-2020 16,8     20,2     24,8 8,0 51 70 84 1.016 1.019 1.021 SO 3,7 22,0 0,0
07-05-2020 16,9     21,4     27,3 10,4 33 62 81 1.019 1.020 1.021 SSO 3,4 22,0 0,0
06-05-2020 17,4     23,0     29,9 12,5 33 58 80 1.017 1.018 1.021 SSO 3,2 23,4 0,0
05-05-2020 16,7     22,7     31,7 15,0 30 61 81 1.014 1.016 1.018 SO 2,4 18,4 0,0
04-05-2020 16,0     21,5     27,9 11,9 50 66 81 1.015 1.018 1.020 SO 3,0 17,3 0,0
03-05-2020 18,7     24,5     30,1 11,4 32 47 74 1.018 1.020 1.021 SSO 3,8 24,5 0,0
02-05-2020 19,5     26,6     34,0 14,5 11 38 64 1.018 1.020 1.022 S 5,3 29,5 0,0
Últims 13 mesos disponibles
04/2020 8,3 13,0 17,9 16,6 15,9 21,5 27,1 18,8 39 70 96 1.008 1.017 1.024 S 3,4 34,2 66,0
03/2020 6,0 11,0 16,9 14,5 10,0 19,2 30,2 24,2 35 67 95 1.009 1.018 1.028 SSO 3,8 76,0 131,1
02/2020 6,3 10,6 14,5 15,7 13,7 22,6 27,3 21,0 30 61 92 1.015 1.026 1.033 S 3,0 36,7 5,4
01/2020 3,3 7,5 14,2 11,4 7,8 16,9 21,6 18,3 45 69 99 1.016 1.026 1.033 SE 3,7 54,0 337,2
12/2019 5,4 10,6 17,8 14,0 11,4 18,8 25,6 20,2 43 66 96 1.004 1.020 1.033 SSE 4,6 66,2 162,6
11/2019 5,9 12,1 21,1 15,7 16,2 20,0 27,7 21,8 39 52 70 1.001 1.013 1.020 S 7,0 57,6 9,0
10/2019 11,4 16,4 20,2 20,8 16,3 26,7 35,0 23,6 34 60 85 1.010 1.019 1.024 SSE 3,3 33,1 53,7
09/2019 14,6 20,1 23,5 24,1 20,5 29,5 36,9 22,3 32 67 92 1.013 1.020 1.026 S 3,8 39,2 134,1
08/2019 18,3 22,4 26,7 27,6 29,0 34,4 42,7 24,4 33 60 77 1.013 1.018 1.023 OSO 3,9 34,2 6,6
07/2019 21,1 22,9 26,5 28,2 29,1 34,9 40,2 19,1 31 55 73 1.009 1.017 1.024 SO 4,6 37,8 2,7
06/2019 13,4 18,2 22,4 24,2 23,2 30,9 39,7 26,3 27 52 71 1.012 1.018 1.024 SO 4,5 40,3 0,0
05/2019 9,3 14,9 21,1 20,1 19,9 26,6 33,3 24,0 40 57 79 1.008 1.017 1.026 S 4,3 41,8 33,0
04/2019 9,5 11,9 15,5 15,9 13,5 21,1 29,9 20,4 34 61 98 1.001 1.015 1.026 S 5,5 50,0 202,2
Tots els anys disponibles
2019 0,8 14,6 26,7 19,3 11,4 25,2 42,7 41,9 27 57 98 998 1.019 1.035 S 4,4 66,2 661,8
2018 2,3 14,9 26,0 19,6 8,3 24,9 40,0 37,7 26 58 97 993 1.017 1.035 0,9 81,0 528,6
Temperatura (°C)
Humitat relativa (%)
Velocitat del vent i ràfega màxima (km/h)
Direcció del vent (°)
Pressió (hPa)
Precipitació (mm)
Nota sobre les dades: s'avisa a l'usuari de la provisionalitat i no oficialitat d'aquestes dades
Logo AVAMET blanc
Web allotjada a Sollutia
Llicència de Creative CommonsLa web d'AVAMET i els seus continguts estan subjectes a una llicència de
Reconeixement - No Comercial - Compartir igual
Últimes estacions: Xodos - la Vega (Soci), la Vall d'Alba - Centre (Ajuntament soci), Chera (Ajuntament soci) - - -